Time;durP1;ratioP1;P1;durP2;ratioP2;P2;SDS_P1;SDS_P2;PMS_P1;PMS_P2;Temp;Humidity;BMP_temperature;BMP_pressure;BME280_temperature;BME280_humidity;BME280_pressure;Samples;Min_cycle;Max_cycle;Signal;HPM_P1;HPM_P2
2021/03/21 00:00:25;;;;;;;;;;;-0.80;88.10;;;;;;5072721;28;20021;-69
2021/03/21 00:02:51;;;;;;;;;;;-0.90;88.90;;;;;;5072482;28;20351;-70
2021/03/21 00:05:16;;;;;;;;;;;-0.80;88.50;;;;;;5079198;28;19923;-70
2021/03/21 00:07:42;;;;;;;;;;;-0.80;87.50;;;;;;5080319;28;19916;-69
2021/03/21 00:10:08;;;;;;;;;;;-0.80;86.60;;;;;;5073683;28;19956;-70
2021/03/21 00:12:33;;;;;;;;;;;-0.80;85.90;;;;;;5072414;28;20260;-69
2021/03/21 00:14:59;;;;;;;;;;;-0.70;84.80;;;;;;5073568;28;19912;-70
2021/03/21 00:17:25;;;;;;;;;;;-0.70;84.50;;;;;;5073390;28;19920;-70
2021/03/21 00:19:50;;;;;;;;;;;-0.70;85.00;;;;;;5090169;28;19924;-70
2021/03/21 00:22:16;;;;;;;;;;;-0.60;85.90;;;;;;5081757;28;19919;-70
2021/03/21 00:24:42;;;;;;;;;;;-0.60;86.90;;;;;;5081940;28;19959;-69
2021/03/21 00:27:08;;;;;;;;;;;-0.70;88.10;;;;;;5082838;28;20375;-68
2021/03/21 00:29:33;;;;;;;;;;;-0.80;86.70;;;;;;5086861;28;20298;-68
2021/03/21 00:31:59;;;;;;;;;;;-0.70;86.80;;;;;;5079922;28;19940;-69
2021/03/21 00:34:25;;;;;;;;;;;-0.70;85.10;;;;;;5068246;28;19959;-68
2021/03/21 00:36:50;;;;;;;;;;;-0.70;82.60;;;;;;5081118;28;20256;-68
2021/03/21 00:39:16;;;;;;;;;;;-0.60;81.90;;;;;;5086268;28;19916;-68
2021/03/21 00:41:42;;;;;;;;;;;-0.60;81.70;;;;;;5074122;28;20285;-68
2021/03/21 00:44:07;;;;;;;;;;;-0.60;81.10;;;;;;5069904;28;19973;-68
2021/03/21 00:46:33;;;;;;;;;;;-0.60;80.10;;;;;;5084473;28;19951;-68
2021/03/21 00:48:59;;;;;;;;;;;-0.60;79.60;;;;;;5089289;28;19957;-68
2021/03/21 00:51:25;;;;;;;;;;;-0.50;78.50;;;;;;5085162;28;19913;-68
2021/03/21 00:53:50;;;;;;;;;;;-0.50;78.60;;;;;;5085479;28;20260;-68
2021/03/21 00:56:24;;;;;;;;;;;-0.50;79.30;;;;;;5088911;28;19940;-68
2021/03/21 00:58:49;;;;;;;;;;;-0.40;76.20;;;;;;5070572;28;19920;-68
2021/03/21 01:01:15;;;;;;;;;;;-0.40;77.10;;;;;;5085027;28;20018;-68
2021/03/21 01:03:40;;;;;;;;;;;-0.40;77.60;;;;;;5098430;28;19919;-69
2021/03/21 01:06:07;;;;;;;;;;;-0.50;77.60;;;;;;5077572;28;19927;-68
2021/03/21 01:08:37;;;;;;;;;;;-0.50;77.00;;;;;;5096962;28;19912;-68
2021/03/21 01:11:07;;;;;;;;;;;-0.50;77.60;;;;;;5087359;28;19916;-68
2021/03/21 01:13:34;;;;;;;;;;;-0.50;77.70;;;;;;5078592;28;20391;-68
2021/03/21 01:16:00;;;;;;;;;;;-0.40;76.10;;;;;;5062988;28;20057;-68
2021/03/21 01:18:27;;;;;;;;;;;-0.40;78.80;;;;;;5086979;28;20007;-68
2021/03/21 01:20:53;;;;;;;;;;;-0.50;83.20;;;;;;5079554;28;19923;-68
2021/03/21 01:23:19;;;;;;;;;;;-0.50;84.10;;;;;;5089270;28;19932;-68
2021/03/21 01:25:44;;;;;;;;;;;-0.50;83.20;;;;;;5095512;28;19912;-68
2021/03/21 01:28:36;;;;;;;;;;;-0.40;80.20;;;;;;5071367;28;20023;-68
2021/03/21 01:31:05;;;;;;;;;;;-0.40;83.60;;;;;;5088798;28;19920;-68
2021/03/21 01:33:31;;;;;;;;;;;-0.60;86.30;;;;;;5092959;28;19920;-68
2021/03/21 01:35:57;;;;;;;;;;;-0.60;86.50;;;;;;5083918;28;19913;-68
2021/03/21 01:38:23;;;;;;;;;;;-0.50;85.60;;;;;;5093635;28;19938;-68
2021/03/21 01:40:53;;;;;;;;;;;-0.50;85.40;;;;;;5087151;28;19920;-68
2021/03/21 01:43:24;;;;;;;;;;;-0.60;85.60;;;;;;5072585;28;20313;-68
2021/03/21 01:45:50;;;;;;;;;;;-0.60;86.10;;;;;;5088048;28;19919;-68
2021/03/21 01:48:28;;;;;;;;;;;-0.60;86.10;;;;;;5079570;28;19913;-68
2021/03/21 01:50:57;;;;;;;;;;;-0.60;85.30;;;;;;5096715;28;20352;-68
2021/03/21 01:53:24;;;;;;;;;;;-0.60;84.70;;;;;;5094243;28;19912;-68
2021/03/21 01:55:51;;;;;;;;;;;-0.40;84.70;;;;;;5089847;28;19920;-68
2021/03/21 01:58:18;;;;;;;;;;;-0.40;85.60;;;;;;5096962;28;20022;-68
2021/03/21 02:00:45;;;;;;;;;;;-0.40;85.70;;;;;;5092371;28;19916;-68
2021/03/21 02:03:12;;;;;;;;;;;-0.40;86.30;;;;;;5077896;28;19918;-68
2021/03/21 02:05:38;;;;;;;;;;;-0.40;85.40;;;;;;5060812;28;19920;-68
2021/03/21 02:08:04;;;;;;;;;;;-0.40;86.10;;;;;;5059689;28;20374;-68
2021/03/21 02:10:33;;;;;;;;;;;-0.40;75.80;;;;;;5087309;28;20007;-67
2021/03/21 02:13:07;;;;;;;;;;;-0.30;75.00;;;;;;5059830;28;19916;-68
2021/03/21 02:15:36;;;;;;;;;;;-0.20;74.80;;;;;;5067793;28;19948;-68
2021/03/21 02:18:14;;;;;;;;;;;-0.20;76.60;;;;;;5078895;28;19913;-68
2021/03/21 02:20:50;;;;;;;;;;;-0.30;80.10;;;;;;5060729;28;19949;-68
2021/03/21 02:23:27;;;;;;;;;;;-0.20;80.60;;;;;;5091153;28;19912;-68
2021/03/21 02:25:55;;;;;;;;;;;-0.20;81.40;;;;;;5060650;28;19951;-67
2021/03/21 02:28:36;;;;;;;;;;;-0.30;85.30;;;;;;5082754;28;19920;-68
2021/03/21 02:31:05;;;;;;;;;;;-0.30;84.90;;;;;;5079114;28;19943;-68
2021/03/21 02:33:35;;;;;;;;;;;-0.30;86.00;;;;;;5061219;28;19920;-68
2021/03/21 02:36:07;;;;;;;;;;;-0.40;86.90;;;;;;5084953;28;19912;-67
2021/03/21 02:38:42;;;;;;;;;;;-0.40;87.30;;;;;;5089003;28;19928;-68
2021/03/21 02:41:12;;;;;;;;;;;-0.40;87.40;;;;;;5080406;28;19920;-68
2021/03/21 02:43:46;;;;;;;;;;;-0.30;82.10;;;;;;5064389;28;19923;-67
2021/03/21 02:46:22;;;;;;;;;;;-0.40;84.80;;;;;;5084167;28;19913;-68
2021/03/21 02:48:51;;;;;;;;;;;-0.40;87.40;;;;;;5092841;27;19955;-68
2021/03/21 02:51:25;;;;;;;;;;;-0.40;83.50;;;;;;5080346;28;19920;-68
2021/03/21 02:53:54;;;;;;;;;;;-0.40;80.40;;;;;;5054202;28;19916;-68
2021/03/21 02:56:22;;;;;;;;;;;-0.30;78.70;;;;;;5072929;28;20016;-67
2021/03/21 02:58:50;;;;;;;;;;;-0.30;77.90;;;;;;5088078;28;19927;-68
2021/03/21 03:01:21;;;;;;;;;;;-0.30;76.90;;;;;;5075808;28;19913;-67
2021/03/21 03:03:49;;;;;;;;;;;-0.20;75.90;;;;;;5076547;28;19965;-67
2021/03/21 03:06:19;;;;;;;;;;;-0.20;76.00;;;;;;5082054;28;19912;-68
2021/03/21 03:08:47;;;;;;;;;;;-0.10;74.80;;;;;;5081750;28;20372;-68
2021/03/21 03:11:18;;;;;;;;;;;-0.10;75.60;;;;;;5059929;28;19920;-67
2021/03/21 03:13:50;;;;;;;;;;;-0.10;74.60;;;;;;5068217;28;20426;-67
2021/03/21 03:16:35;;;;;;;;;;;-0.10;74.60;;;;;;5091265;28;20319;-68
2021/03/21 03:19:13;;;;;;;;;;;-0.10;78.50;;;;;;5080265;28;20042;-68
2021/03/21 03:21:39;;;;;;;;;;;-0.10;83.10;;;;;;5064075;28;19944;-68
2021/03/21 03:24:22;;;;;;;;;;;-0.20;84.10;;;;;;5075052;28;19951;-68
2021/03/21 03:26:52;;;;;;;;;;;-0.20;83.70;;;;;;5051973;28;20328;-68
2021/03/21 03:29:19;;;;;;;;;;;-0.20;82.80;;;;;;5087672;28;19919;-68
2021/03/21 03:31:48;;;;;;;;;;;-0.30;81.50;;;;;;5086127;28;19939;-68
2021/03/21 03:34:14;;;;;;;;;;;-0.30;81.40;;;;;;5089729;28;20008;-68
2021/03/21 03:36:40;;;;;;;;;;;-0.30;81.10;;;;;;5078362;28;19912;-68
2021/03/21 03:39:07;;;;;;;;;;;-0.30;80.40;;;;;;5093523;28;20224;-68
2021/03/21 03:41:38;;;;;;;;;;;-0.30;80.10;;;;;;5090010;28;19969;-67
2021/03/21 03:44:06;;;;;;;;;;;-0.10;79.90;;;;;;5085077;28;19916;-68
2021/03/21 03:46:36;;;;;;;;;;;-0.10;78.40;;;;;;5069546;28;20014;-67
2021/03/21 03:49:37;;;;;;;;;;;-0.10;76.90;;;;;;5082320;28;19981;-68
2021/03/21 03:52:21;;;;;;;;;;;-0.10;77.80;;;;;;5006579;28;19924;-68
2021/03/21 03:54:52;;;;;;;;;;;-0.10;79.80;;;;;;5076930;28;19999;-67
2021/03/21 03:57:18;;;;;;;;;;;-0.20;80.00;;;;;;5075991;28;20225;-67
2021/03/21 04:00:04;;;;;;;;;;;-0.10;79.80;;;;;;5065201;28;19916;-68
2021/03/21 04:03:09;;;;;;;;;;;-0.20;79.60;;;;;;5077794;28;19954;-68
2021/03/21 04:05:39;;;;;;;;;;;-0.10;79.00;;;;;;5015239;28;19917;-68
2021/03/21 04:08:11;;;;;;;;;;;-0.20;79.10;;;;;;5012907;28;19920;-68
2021/03/21 04:10:40;;;;;;;;;;;-0.20;78.60;;;;;;5056525;28;19912;-68
2021/03/21 04:13:13;;;;;;;;;;;-0.20;77.70;;;;;;5080950;28;19946;-68
2021/03/21 04:15:44;;;;;;;;;;;-0.20;79.10;;;;;;5093077;28;19969;-68
2021/03/21 04:18:13;;;;;;;;;;;-0.10;78.60;;;;;;5095061;28;20208;-68
2021/03/21 04:20:41;;;;;;;;;;;-0.10;79.70;;;;;;5084946;28;19920;-68
2021/03/21 04:23:13;;;;;;;;;;;-0.10;78.60;;;;;;5079571;28;20014;-68
2021/03/21 04:25:41;;;;;;;;;;;-0.10;78.90;;;;;;5075107;28;19924;-68
2021/03/21 04:28:10;;;;;;;;;;;-0.10;78.40;;;;;;5078705;28;19909;-68
2021/03/21 04:30:38;;;;;;;;;;;-0.10;78.40;;;;;;5085965;28;19912;-67
2021/03/21 04:33:06;;;;;;;;;;;0.00;78.10;;;;;;5057649;28;19912;-67
2021/03/21 04:35:52;;;;;;;;;;;0.00;78.40;;;;;;5082294;28;19915;-68
2021/03/21 04:38:22;;;;;;;;;;;-0.10;78.90;;;;;;5083226;28;20345;-68
2021/03/21 04:40:48;;;;;;;;;;;-0.10;79.00;;;;;;5090576;28;19908;-67
2021/03/21 04:43:17;;;;;;;;;;;-0.20;80.00;;;;;;5075269;28;19913;-68
2021/03/21 04:45:49;;;;;;;;;;;-0.30;81.00;;;;;;5080191;28;20386;-67
2021/03/21 04:48:17;;;;;;;;;;;-0.20;81.80;;;;;;5075407;28;19916;-68
2021/03/21 04:50:43;;;;;;;;;;;-0.30;82.30;;;;;;5088622;28;19920;-68
2021/03/21 04:53:17;;;;;;;;;;;-0.40;83.10;;;;;;5083263;28;19921;-68
2021/03/21 04:55:50;;;;;;;;;;;-0.30;83.20;;;;;;5071528;28;19916;-68
2021/03/21 04:58:29;;;;;;;;;;;-0.40;82.80;;;;;;5088803;28;20414;-68
2021/03/21 05:01:01;;;;;;;;;;;-0.30;83.00;;;;;;5085071;28;19916;-67
2021/03/21 05:03:47;;;;;;;;;;;-0.30;83.50;;;;;;5072542;28;19923;-67
2021/03/21 05:06:16;;;;;;;;;;;-0.40;82.90;;;;;;5075110;28;20077;-67
2021/03/21 05:08:53;;;;;;;;;;;-0.30;83.00;;;;;;5067981;28;19912;-68
2021/03/21 05:11:20;;;;;;;;;;;-0.40;83.10;;;;;;5081308;28;20324;-68
2021/03/21 05:13:59;;;;;;;;;;;-0.40;82.70;;;;;;5078549;28;19916;-68
2021/03/21 05:16:35;;;;;;;;;;;-0.30;81.40;;;;;;5080698;28;19999;-68
2021/03/21 05:19:20;;;;;;;;;;;-0.30;81.10;;;;;;5081837;28;19916;-67
2021/03/21 05:21:48;;;;;;;;;;;-0.20;79.80;;;;;;5090101;28;19918;-68
2021/03/21 05:24:17;;;;;;;;;;;-0.20;79.30;;;;;;5085302;28;20331;-68
2021/03/21 05:27:01;;;;;;;;;;;-0.20;78.60;;;;;;5096046;28;20003;-68
2021/03/21 05:29:53;;;;;;;;;;;-0.20;79.50;;;;;;5080397;28;20014;-68
2021/03/21 05:32:21;;;;;;;;;;;-0.20;79.00;;;;;;5056054;28;20307;-67
2021/03/21 05:34:48;;;;;;;;;;;-0.20;78.10;;;;;;5082965;28;19946;-67
2021/03/21 05:37:32;;;;;;;;;;;-0.10;76.80;;;;;;5086617;28;19920;-68
2021/03/21 05:39:58;;;;;;;;;;;-0.10;75.60;;;;;;5089278;28;19916;-68
2021/03/21 05:42:30;;;;;;;;;;;0.00;76.10;;;;;;5089597;28;20312;-68
2021/03/21 05:44:58;;;;;;;;;;;0.10;74.80;;;;;;5078500;28;19920;-67
2021/03/21 05:47:41;;;;;;;;;;;0.10;76.50;;;;;;5082032;28;20443;-68
2021/03/21 05:50:09;;;;;;;;;;;0.10;77.40;;;;;;5086943;28;19916;-68
2021/03/21 05:52:58;;;;;;;;;;;0.20;76.80;;;;;;5073576;28;20267;-68
2021/03/21 05:55:34;;;;;;;;;;;0.20;77.90;;;;;;5085315;28;19920;-68
2021/03/21 05:58:19;;;;;;;;;;;0.20;78.10;;;;;;5086419;28;19955;-68
2021/03/21 06:00:47;;;;;;;;;;;0.20;77.30;;;;;;5064870;28;20287;-68
2021/03/21 06:03:16;;;;;;;;;;;0.20;75.70;;;;;;5078341;28;19912;-68
2021/03/21 06:05:48;;;;;;;;;;;0.20;74.00;;;;;;5088870;28;19912;-67
2021/03/21 06:08:32;;;;;;;;;;;0.30;75.00;;;;;;5093066;28;20219;-67
2021/03/21 06:11:16;;;;;;;;;;;0.30;73.20;;;;;;5087565;28;20003;-68
2021/03/21 06:13:46;;;;;;;;;;;0.30;72.50;;;;;;5094465;28;19950;-68
2021/03/21 06:16:15;;;;;;;;;;;0.40;72.40;;;;;;5078673;28;19973;-67
2021/03/21 06:18:56;;;;;;;;;;;0.40;72.10;;;;;;5087732;28;19920;-67
2021/03/21 06:21:57;;;;;;;;;;;0.40;72.00;;;;;;5094097;28;19966;-67
2021/03/21 06:24:41;;;;;;;;;;;0.40;72.50;;;;;;5010124;28;19925;-68
2021/03/21 06:27:25;;;;;;;;;;;0.50;72.70;;;;;;5086831;28;19976;-67
2021/03/21 06:30:18;;;;;;;;;;;0.50;72.70;;;;;;5071243;28;19912;-68
2021/03/21 06:32:53;;;;;;;;;;;0.50;72.70;;;;;;5051460;28;19909;-68
2021/03/21 06:35:35;;;;;;;;;;;0.60;72.70;;;;;;5078213;28;19912;-67
2021/03/21 06:38:19;;;;;;;;;;;0.60;72.20;;;;;;5066101;28;19952;-68
2021/03/21 06:40:45;;;;;;;;;;;0.70;72.10;;;;;;5087032;28;19924;-68
2021/03/21 06:43:18;;;;;;;;;;;0.80;71.10;;;;;;5065456;28;20308;-67
2021/03/21 06:46:02;;;;;;;;;;;0.80;70.70;;;;;;5077154;28;20331;-67
2021/03/21 06:48:47;;;;;;;;;;;0.90;69.20;;;;;;5085026;28;20278;-67
2021/03/21 06:51:21;;;;;;;;;;;0.90;68.30;;;;;;5076794;28;19920;-67
2021/03/21 06:53:59;;;;;;;;;;;0.90;68.90;;;;;;5082149;28;19954;-67
2021/03/21 06:56:42;;;;;;;;;;;0.90;69.30;;;;;;5083740;28;19916;-67
2021/03/21 06:59:20;;;;;;;;;;;0.90;68.70;;;;;;5076876;28;19974;-67
2021/03/21 07:02:04;;;;;;;;;;;0.90;68.30;;;;;;5085970;28;19912;-67
2021/03/21 07:04:47;;;;;;;;;;;0.90;68.50;;;;;;5086481;28;19916;-67
2021/03/21 07:07:32;;;;;;;;;;;0.90;69.20;;;;;;5094372;28;19959;-67
2021/03/21 07:10:07;;;;;;;;;;;0.90;69.60;;;;;;5072964;28;19913;-67
2021/03/21 07:12:42;;;;;;;;;;;1.00;69.90;;;;;;5090274;28;19985;-67
2021/03/21 07:15:24;;;;;;;;;;;0.90;69.70;;;;;;5080664;28;19957;-67
2021/03/21 07:17:49;;;;;;;;;;;0.80;70.40;;;;;;5075883;28;19912;-67
2021/03/21 07:20:34;;;;;;;;;;;1.00;71.00;;;;;;5090723;28;19939;-67
2021/03/21 07:23:22;;;;;;;;;;;0.90;69.80;;;;;;5089515;28;20007;-68
2021/03/21 07:26:00;;;;;;;;;;;0.90;70.60;;;;;;5078589;28;20260;-67
2021/03/21 07:28:35;;;;;;;;;;;1.00;70.60;;;;;;5082248;28;20007;-68
2021/03/21 07:31:19;;;;;;;;;;;1.00;70.50;;;;;;5084806;28;19912;-68
2021/03/21 07:34:00;;;;;;;;;;;1.10;70.70;;;;;;5086387;28;19927;-68
2021/03/21 07:36:26;;;;;;;;;;;1.00;71.20;;;;;;5081585;28;19921;-68
2021/03/21 07:39:00;;;;;;;;;;;1.10;71.10;;;;;;5079161;28;20264;-67
2021/03/21 07:41:28;;;;;;;;;;;1.00;70.80;;;;;;5078616;28;19938;-67
2021/03/21 07:44:00;;;;;;;;;;;1.00;70.60;;;;;;5077052;28;20012;-68
2021/03/21 07:46:55;;;;;;;;;;;1.00;71.30;;;;;;5075485;28;20350;-68
2021/03/21 07:49:45;;;;;;;;;;;1.00;71.60;;;;;;5056200;28;19924;-68
2021/03/21 07:52:13;;;;;;;;;;;1.00;71.80;;;;;;5058147;28;20058;-68
2021/03/21 07:54:47;;;;;;;;;;;1.00;72.40;;;;;;5078042;28;19920;-68
2021/03/21 07:57:18;;;;;;;;;;;1.10;72.30;;;;;;5079299;28;19920;-71
2021/03/21 07:59:47;;;;;;;;;;;1.00;72.80;;;;;;5077986;28;19933;-69
2021/03/21 08:02:14;;;;;;;;;;;1.00;72.90;;;;;;5080312;28;19966;-67
2021/03/21 08:04:48;;;;;;;;;;;1.10;73.20;;;;;;5077216;28;19928;-69
2021/03/21 08:07:17;;;;;;;;;;;1.10;72.80;;;;;;5060570;28;19920;-67
2021/03/21 08:09:43;;;;;;;;;;;1.10;72.80;;;;;;5058308;28;19955;-69
2021/03/21 08:12:27;;;;;;;;;;;1.10;73.60;;;;;;5078713;28;19989;-69
2021/03/21 08:15:00;;;;;;;;;;;1.20;73.30;;;;;;5078606;28;19951;-68
2021/03/21 08:17:29;;;;;;;;;;;1.20;73.10;;;;;;5077594;28;19916;-69
2021/03/21 08:19:57;;;;;;;;;;;1.20;73.70;;;;;;5075932;28;20009;-67
2021/03/21 08:22:24;;;;;;;;;;;1.20;73.10;;;;;;5059283;28;20010;-68
2021/03/21 08:24:52;;;;;;;;;;;1.10;73.60;;;;;;5077048;28;20645;-68
2021/03/21 08:27:20;;;;;;;;;;;1.10;73.80;;;;;;5086923;28;19912;-69
2021/03/21 08:29:54;;;;;;;;;;;1.10;74.40;;;;;;5091467;28;19912;-68
2021/03/21 08:32:21;;;;;;;;;;;1.10;74.70;;;;;;5066747;28;19920;-68
2021/03/21 08:34:48;;;;;;;;;;;1.30;75.20;;;;;;5062968;28;19935;-67
2021/03/21 08:37:17;;;;;;;;;;;1.30;74.90;;;;;;5084830;28;19930;-67
2021/03/21 08:39:44;;;;;;;;;;;1.30;74.70;;;;;;5078876;28;19928;-68
2021/03/21 08:42:30;;;;;;;;;;;1.30;74.20;;;;;;5082055;28;19921;-68
2021/03/21 08:45:18;;;;;;;;;;;1.20;74.70;;;;;;5080863;28;20309;-67
2021/03/21 08:47:43;;;;;;;;;;;1.20;74.90;;;;;;5064464;28;19920;-67
2021/03/21 08:50:28;;;;;;;;;;;1.20;74.90;;;;;;5080232;28;20216;-68
2021/03/21 08:52:54;;;;;;;;;;;1.30;75.20;;;;;;5081995;28;19916;-67
2021/03/21 08:55:27;;;;;;;;;;;1.30;74.90;;;;;;5079441;28;19916;-67
2021/03/21 08:57:53;;;;;;;;;;;1.40;75.10;;;;;;5080316;28;19948;-67
2021/03/21 09:00:18;;;;;;;;;;;1.40;74.90;;;;;;5079586;28;20020;-68
2021/03/21 09:02:45;;;;;;;;;;;1.40;74.50;;;;;;5065801;28;19913;-68
2021/03/21 09:05:12;;;;;;;;;;;1.30;75.00;;;;;;5081634;28;20309;-67
2021/03/21 09:07:40;;;;;;;;;;;1.30;74.60;;;;;;5080555;28;19920;-67
2021/03/21 09:10:09;;;;;;;;;;;1.40;74.70;;;;;;5056168;28;19921;-67
2021/03/21 09:12:37;;;;;;;;;;;1.40;75.20;;;;;;5066152;28;20230;-67
2021/03/21 09:15:18;;;;;;;;;;;1.40;74.60;;;;;;5083470;28;19916;-67
2021/03/21 09:17:59;;;;;;;;;;;1.40;74.80;;;;;;5080273;28;19931;-68
2021/03/21 09:20:25;;;;;;;;;;;1.50;75.00;;;;;;5079733;28;20316;-67
2021/03/21 09:22:53;;;;;;;;;;;1.40;75.00;;;;;;5083948;28;19927;-70
2021/03/21 09:25:32;;;;;;;;;;;1.40;75.10;;;;;;5079539;28;19981;-71
2021/03/21 09:27:58;;;;;;;;;;;1.40;75.40;;;;;;5086379;28;19920;-70
2021/03/21 09:30:27;;;;;;;;;;;1.40;75.90;;;;;;5084214;28;19912;-71
2021/03/21 09:33:02;;;;;;;;;;;1.40;75.80;;;;;;5081020;28;20228;-71
2021/03/21 09:35:33;;;;;;;;;;;1.50;76.00;;;;;;5065156;28;20065;-72
2021/03/21 09:38:11;;;;;;;;;;;1.70;76.00;;;;;;5063819;28;20356;-71
2021/03/21 09:40:38;;;;;;;;;;;1.90;75.10;;;;;;5061661;28;19966;-71
2021/03/21 09:43:09;;;;;;;;;;;2.00;75.20;;;;;;5077959;28;19971;-71
2021/03/21 09:45:35;;;;;;;;;;;2.00;74.40;;;;;;5086102;28;19943;-70
2021/03/21 09:48:03;;;;;;;;;;;2.10;74.50;;;;;;5085420;28;19921;-71
2021/03/21 09:50:45;;;;;;;;;;;2.20;73.80;;;;;;5083073;28;19924;-70
2021/03/21 09:53:29;;;;;;;;;;;2.20;73.20;;;;;;5079357;28;19920;-71
2021/03/21 09:55:57;;;;;;;;;;;2.10;73.50;;;;;;5083938;28;20011;-70
2021/03/21 09:58:42;;;;;;;;;;;2.30;73.90;;;;;;5062766;28;19920;-68
2021/03/21 10:01:16;;;;;;;;;;;2.20;73.40;;;;;;5065392;28;20244;-70
2021/03/21 10:03:44;;;;;;;;;;;2.20;72.90;;;;;;5081548;28;19920;-71
2021/03/21 10:06:17;;;;;;;;;;;2.20;72.70;;;;;;5083257;28;19916;-71
2021/03/21 10:08:46;;;;;;;;;;;2.20;73.10;;;;;;5079323;28;19921;-72
2021/03/21 10:11:21;;;;;;;;;;;2.20;72.90;;;;;;5077094;28;19916;-71
2021/03/21 10:13:46;;;;;;;;;;;2.20;73.60;;;;;;5082886;28;20340;-71
2021/03/21 10:16:14;;;;;;;;;;;2.30;73.20;;;;;;5082625;28;19920;-71
2021/03/21 10:18:53;;;;;;;;;;;2.40;73.20;;;;;;5067815;28;19924;-71
2021/03/21 10:21:22;;;;;;;;;;;2.40;72.90;;;;;;5062395;28;19919;-71
2021/03/21 10:23:48;;;;;;;;;;;2.40;72.80;;;;;;5061124;28;19919;-70
2021/03/21 10:26:14;;;;;;;;;;;2.30;73.30;;;;;;5084151;28;19924;-70
2021/03/21 10:28:43;;;;;;;;;;;2.40;73.80;;;;;;5084500;28;19920;-69
2021/03/21 10:31:35;;;;;;;;;;;2.30;73.20;;;;;;5062567;28;20015;-70
2021/03/21 10:34:03;;;;;;;;;;;2.40;73.40;;;;;;5077917;28;19919;-72
2021/03/21 10:36:38;;;;;;;;;;;2.50;73.70;;;;;;5085754;28;19934;-71
2021/03/21 10:39:04;;;;;;;;;;;2.50;72.80;;;;;;5080725;28;20255;-69
2021/03/21 10:41:48;;;;;;;;;;;2.60;73.10;;;;;;5063990;28;19913;-69
2021/03/21 10:44:14;;;;;;;;;;;2.50;73.10;;;;;;5063362;28;19916;-69
2021/03/21 10:46:42;;;;;;;;;;;2.60;73.00;;;;;;5080231;28;19931;-69
2021/03/21 10:49:08;;;;;;;;;;;2.70;73.40;;;;;;5064440;28;19932;-68
2021/03/21 10:51:53;;;;;;;;;;;2.80;72.80;;;;;;5062851;28;19920;-69
2021/03/21 10:54:24;;;;;;;;;;;2.70;72.90;;;;;;5081828;28;19912;-69
2021/03/21 10:57:09;;;;;;;;;;;2.70;73.40;;;;;;5080558;28;19920;-69
2021/03/21 10:59:35;;;;;;;;;;;2.70;72.80;;;;;;5083199;28;19924;-69
2021/03/21 11:02:19;;;;;;;;;;;2.70;73.80;;;;;;5092724;28;19912;-68
2021/03/21 11:04:46;;;;;;;;;;;2.80;73.60;;;;;;5070324;28;19916;-69
2021/03/21 11:07:18;;;;;;;;;;;2.90;73.30;;;;;;5089056;28;19916;-69
2021/03/21 11:09:54;;;;;;;;;;;3.00;72.60;;;;;;5090731;28;19988;-68
2021/03/21 11:12:32;;;;;;;;;;;3.00;73.10;;;;;;5095617;28;19912;-67
2021/03/21 11:15:13;;;;;;;;;;;3.00;72.90;;;;;;5072709;28;20319;-67
2021/03/21 11:17:39;;;;;;;;;;;3.10;72.90;;;;;;5069840;28;19916;-68
2021/03/21 11:20:20;;;;;;;;;;;3.10;72.40;;;;;;5096438;28;19912;-68
2021/03/21 11:22:47;;;;;;;;;;;3.30;72.10;;;;;;5093509;28;19912;-69
2021/03/21 11:25:13;;;;;;;;;;;3.40;71.90;;;;;;5065984;28;20006;-68
2021/03/21 11:27:39;;;;;;;;;;;3.60;71.90;;;;;;5095310;28;19916;-69
2021/03/21 11:30:13;;;;;;;;;;;3.60;72.10;;;;;;5085774;28;19935;-69
2021/03/21 11:32:39;;;;;;;;;;;3.60;72.20;;;;;;5082045;28;19912;-70
2021/03/21 11:35:07;;;;;;;;;;;3.60;72.20;;;;;;5086066;28;19913;-69
2021/03/21 11:37:38;;;;;;;;;;;3.90;72.40;;;;;;5067599;28;19919;-69
2021/03/21 11:40:22;;;;;;;;;;;4.10;72.10;;;;;;5082934;28;19917;-69
2021/03/21 11:42:49;;;;;;;;;;;4.20;71.80;;;;;;5078551;28;20259;-69
2021/03/21 11:45:28;;;;;;;;;;;4.40;72.10;;;;;;5078409;28;20376;-71
2021/03/21 11:48:09;;;;;;;;;;;4.50;71.90;;;;;;5080898;28;19920;-70
2021/03/21 11:50:36;;;;;;;;;;;4.40;71.80;;;;;;5076278;28;20007;-70
2021/03/21 11:53:03;;;;;;;;;;;4.20;72.50;;;;;;5091333;28;19927;-70
2021/03/21 11:55:30;;;;;;;;;;;4.10;73.50;;;;;;5081183;28;19994;-70
2021/03/21 11:57:56;;;;;;;;;;;4.20;73.80;;;;;;5081037;28;20259;-71
2021/03/21 12:00:32;;;;;;;;;;;4.10;73.30;;;;;;5075363;28;19928;-71
2021/03/21 12:03:02;;;;;;;;;;;4.00;73.80;;;;;;5084497;28;19913;-70
2021/03/21 12:05:30;;;;;;;;;;;4.10;73.80;;;;;;5075325;28;20004;-71
2021/03/21 12:08:28;;;;;;;;;;;4.10;73.30;;;;;;5091536;28;19995;-69
2021/03/21 12:10:54;;;;;;;;;;;4.20;73.90;;;;;;5041380;28;20002;-69
2021/03/21 12:13:28;;;;;;;;;;;4.30;73.90;;;;;;5059855;28;19999;-70
2021/03/21 12:15:55;;;;;;;;;;;4.30;73.00;;;;;;5079760;28;20431;-70
2021/03/21 12:18:29;;;;;;;;;;;4.40;74.40;;;;;;5082271;28;19974;-70
2021/03/21 12:21:09;;;;;;;;;;;4.20;74.80;;;;;;5084933;28;20212;-68
2021/03/21 12:23:40;;;;;;;;;;;4.30;75.10;;;;;;5092186;28;19920;-68
2021/03/21 12:26:17;;;;;;;;;;;4.30;75.00;;;;;;5061357;28;20274;-68
2021/03/21 12:28:51;;;;;;;;;;;4.20;75.60;;;;;;5069181;28;19930;-70
2021/03/21 12:31:37;;;;;;;;;;;4.10;75.70;;;;;;5093314;28;19916;-70
2021/03/21 12:34:20;;;;;;;;;;;4.30;76.30;;;;;;5088929;28;19917;-71
2021/03/21 12:37:00;;;;;;;;;;;4.50;75.70;;;;;;5076436;28;19912;-68
2021/03/21 12:39:27;;;;;;;;;;;4.70;75.40;;;;;;5080864;28;19939;-69
2021/03/21 12:41:53;;;;;;;;;;;4.50;75.80;;;;;;5088692;28;19927;-68
2021/03/21 12:44:19;;;;;;;;;;;4.50;76.40;;;;;;5088894;28;20264;-69
2021/03/21 12:46:45;;;;;;;;;;;4.40;77.00;;;;;;5082265;28;19959;-68
2021/03/21 12:49:26;;;;;;;;;;;4.70;76.70;;;;;;5085067;28;20402;-70
2021/03/21 12:51:55;;;;;;;;;;;4.70;76.70;;;;;;5096013;28;20040;-69
2021/03/21 12:54:21;;;;;;;;;;;4.50;77.30;;;;;;5081460;28;20021;-69
2021/03/21 12:56:46;;;;;;;;;;;4.30;77.90;;;;;;5086469;28;20007;-69
2021/03/21 12:59:12;;;;;;;;;;;4.10;78.60;;;;;;5078726;28;19967;-69
2021/03/21 13:01:43;;;;;;;;;;;4.10;78.70;;;;;;5083123;28;19916;-69
2021/03/21 13:04:09;;;;;;;;;;;4.00;78.80;;;;;;5083438;28;19917;-69
2021/03/21 13:06:34;;;;;;;;;;;3.90;78.50;;;;;;5091035;28;19923;-70
2021/03/21 13:09:00;;;;;;;;;;;4.00;78.80;;;;;;5087290;28;19922;-69
2021/03/21 13:11:25;;;;;;;;;;;4.00;78.70;;;;;;5081662;28;20011;-69
2021/03/21 13:13:51;;;;;;;;;;;4.10;78.90;;;;;;5077615;28;19921;-70
2021/03/21 13:16:17;;;;;;;;;;;4.20;78.60;;;;;;5085692;28;20002;-67
2021/03/21 13:18:42;;;;;;;;;;;4.40;78.30;;;;;;5076389;28;19923;-68
2021/03/21 13:21:08;;;;;;;;;;;4.60;78.20;;;;;;5085732;28;19915;-69
2021/03/21 13:23:34;;;;;;;;;;;4.60;77.20;;;;;;5089135;28;19912;-69
2021/03/21 13:25:59;;;;;;;;;;;4.50;77.80;;;;;;5075425;28;19924;-69
2021/03/21 13:28:25;;;;;;;;;;;4.30;78.00;;;;;;5058750;28;20003;-69
2021/03/21 13:30:51;;;;;;;;;;;4.10;79.20;;;;;;5085715;28;19916;-69
2021/03/21 13:33:26;;;;;;;;;;;3.80;79.50;;;;;;5058019;28;19917;-69
2021/03/21 13:35:55;;;;;;;;;;;3.70;80.50;;;;;;5063781;28;19933;-69
2021/03/21 13:38:21;;;;;;;;;;;3.70;80.70;;;;;;5080292;28;20300;-69
2021/03/21 13:40:47;;;;;;;;;;;3.80;81.20;;;;;;5089255;28;19971;-69
2021/03/21 13:43:13;;;;;;;;;;;3.70;81.00;;;;;;5063734;28;19944;-69
2021/03/21 13:45:40;;;;;;;;;;;3.60;81.60;;;;;;5080725;28;19916;-69
2021/03/21 13:48:05;;;;;;;;;;;3.60;81.10;;;;;;5082568;28;19922;-69
2021/03/21 13:50:32;;;;;;;;;;;3.60;81.40;;;;;;5093423;28;20492;-69
2021/03/21 13:52:57;;;;;;;;;;;3.70;82.40;;;;;;5091296;28;19977;-70
2021/03/21 13:55:31;;;;;;;;;;;3.80;83.70;;;;;;5078622;28;19916;-69
2021/03/21 13:57:57;;;;;;;;;;;3.90;83.60;;;;;;5066549;28;19970;-72
2021/03/21 14:00:23;;;;;;;;;;;4.10;83.40;;;;;;5092185;28;19963;-70
2021/03/21 14:02:49;;;;;;;;;;;4.10;82.80;;;;;;5091985;28;19954;-70
2021/03/21 14:05:15;;;;;;;;;;;4.20;83.00;;;;;;5090939;28;19920;-69
2021/03/21 14:07:42;;;;;;;;;;;4.10;82.80;;;;;;5087175;28;19916;-70
2021/03/21 14:10:08;;;;;;;;;;;3.90;84.20;;;;;;5089343;28;19934;-70
2021/03/21 14:12:33;;;;;;;;;;;3.70;85.60;;;;;;5088540;28;20003;-69
2021/03/21 14:14:59;;;;;;;;;;;3.70;86.10;;;;;;5075640;28;19924;-70
2021/03/21 14:17:24;;;;;;;;;;;3.80;85.90;;;;;;5087348;28;19938;-69
2021/03/21 14:19:50;;;;;;;;;;;3.60;86.70;;;;;;5089018;28;19935;-70
2021/03/21 14:22:17;;;;;;;;;;;3.50;87.10;;;;;;5088635;28;19944;-70
2021/03/21 14:24:42;;;;;;;;;;;3.40;87.30;;;;;;5090630;28;19969;-70
2021/03/21 14:27:08;;;;;;;;;;;3.40;88.50;;;;;;5090289;28;19920;-69
2021/03/21 14:29:34;;;;;;;;;;;3.30;90.60;;;;;;5084421;28;19992;-70
2021/03/21 14:32:00;;;;;;;;;;;3.30;91.30;;;;;;5083094;28;19916;-71
2021/03/21 14:34:26;;;;;;;;;;;3.20;91.50;;;;;;5065543;28;19997;-70
2021/03/21 14:36:51;;;;;;;;;;;3.20;91.70;;;;;;5079208;28;20403;-70
2021/03/21 14:39:17;;;;;;;;;;;3.10;92.00;;;;;;5080698;28;20006;-70
2021/03/21 14:41:42;;;;;;;;;;;3.10;91.60;;;;;;5065689;28;19923;-69
2021/03/21 14:44:08;;;;;;;;;;;3.20;91.70;;;;;;5085857;28;20682;-69
2021/03/21 14:46:33;;;;;;;;;;;3.20;91.60;;;;;;5091670;28;20324;-69
2021/03/21 14:48:59;;;;;;;;;;;3.30;92.10;;;;;;5091333;28;20536;-69
2021/03/21 14:51:24;;;;;;;;;;;3.40;92.00;;;;;;5069905;28;20343;-69